Time;durP1;ratioP1;P1;durP2;ratioP2;P2;SDS_P1;SDS_P2;PMS_P1;PMS_P2;Temp;Humidity;BMP_temperature;BMP_pressure;BME280_temperature;BME280_humidity;BME280_pressure;Samples;Min_cycle;Max_cycle;Signal;HPM_P1;HPM_P2
2023/03/06 00:02:23;;;;;;;23.67;8.43;;;;;;;10.56;77.93;99607.56;4999252;28;20084;-88
2023/03/06 00:04:49;;;;;;;25.67;8.88;;;;;;;10.63;76.74;99616.41;5002617;28;20130;-87
2023/03/06 00:07:14;;;;;;;23.77;7.93;;;;;;;10.60;76.93;99615.97;5002051;28;20062;-87
2023/03/06 00:09:43;;;;;;;23.40;8.50;;;;;;;10.66;76.62;99624.00;4987546;28;20034;-89
2023/03/06 00:12:09;;;;;;;22.85;8.07;;;;;;;10.70;76.57;99621.81;4987798;28;20038;-88
2023/03/06 00:14:34;;;;;;;20.75;7.88;;;;;;;10.68;76.97;99637.88;5005294;28;20432;-89
2023/03/06 00:17:00;;;;;;;21.52;8.20;;;;;;;10.62;77.00;99638.59;5002157;28;20028;-88
2023/03/06 00:19:27;;;;;;;22.80;8.05;;;;;;;10.67;77.30;99632.78;4998311;28;20564;-89
2023/03/06 00:21:55;;;;;;;22.75;7.53;;;;;;;10.57;77.69;99643.63;4981823;28;20126;-89
2023/03/06 00:24:24;;;;;;;20.38;8.18;;;;;;;10.45;78.82;99647.75;4981425;23;20051;-89
2023/03/06 00:26:49;;;;;;;26.52;9.55;;;;;;;10.55;78.43;99650.94;4989209;28;20085;-88
2023/03/06 00:29:16;;;;;;;25.52;9.00;;;;;;;10.57;78.74;99651.56;4973266;28;20039;-86
2023/03/06 00:31:47;;;;;;;18.40;8.13;;;;;;;10.49;79.61;99645.56;4987856;28;20071;-88
2023/03/06 00:34:16;;;;;;;24.00;9.65;;;;;;;10.50;78.93;99653.34;4974720;28;20141;-87
2023/03/06 00:36:48;;;;;;;;;;;;;;;10.54;78.93;99651.94;4976960;28;20038;-87
2023/03/06 00:39:14;;;;;;;20.38;9.50;;;;;;;10.37;78.69;99639.91;4978119;28;19917;-87
2023/03/06 00:41:42;;;;;;;19.35;8.70;;;;;;;10.48;78.39;99649.19;4998392;28;20482;-88
2023/03/06 00:44:08;;;;;;;24.92;8.85;;;;;;;10.41;78.64;99643.81;4978167;28;20029;-87
2023/03/06 00:46:35;;;;;;;27.33;9.35;;;;;;;10.37;79.00;99642.56;4998454;28;20057;-88
2023/03/06 00:49:04;;;;;;;18.65;8.77;;;;;;;10.26;79.62;99637.69;4986311;28;20038;-87
2023/03/06 00:51:39;;;;;;;23.08;8.93;;;;;;;10.22;79.44;99628.47;4971481;28;20066;-90
2023/03/06 00:54:05;;;;;;;19.88;8.55;;;;;;;10.18;79.69;99632.47;4985369;28;20071;-87
2023/03/06 00:56:31;;;;;;;25.10;9.25;;;;;;;10.28;78.62;99638.31;4985347;28;20034;-89
2023/03/06 00:58:56;;;;;;;22.10;8.60;;;;;;;10.27;78.93;99632.19;4966966;28;20027;-88
2023/03/06 01:01:24;;;;;;;17.92;8.32;;;;;;;10.31;78.40;99636.13;4983588;28;20077;-87
2023/03/06 01:03:53;;;;;;;23.92;8.55;;;;;;;10.32;77.57;99629.84;4983370;28;20035;-87
2023/03/06 01:06:21;;;;;;;25.42;9.00;;;;;;;10.38;77.58;99623.00;4983535;28;20043;-86
2023/03/06 01:08:47;;;;;;;26.60;9.35;;;;;;;10.39;77.16;99640.53;4985354;28;20062;-87
2023/03/06 01:11:13;;;;;;;19.25;9.05;;;;;;;10.44;76.48;99627.53;4986661;28;20110;-87
2023/03/06 01:13:43;;;;;;;24.95;9.85;;;;;;;10.24;77.74;99626.47;4952668;28;20483;-86
2023/03/06 01:16:20;;;;;;;20.60;9.05;;;;;;;10.18;78.23;99627.16;4984645;28;20035;-87
2023/03/06 01:18:48;;;;;;;22.00;9.73;;;;;;;10.10;78.14;99617.47;4966761;28;20031;-87
2023/03/06 01:21:15;;;;;;;20.38;8.43;;;;;;;10.12;78.05;99618.09;4966507;28;20054;-88
2023/03/06 01:23:50;;;;;;;22.85;8.77;;;;;;;10.30;77.61;99621.28;4966639;28;20051;-86
2023/03/06 01:26:17;;;;;;;22.08;9.23;;;;;;;10.27;77.07;99620.81;4967956;28;20042;-86
2023/03/06 01:28:46;;;;;;;27.23;9.30;;;;;;;10.40;76.49;99617.53;4981481;28;20046;-87
2023/03/06 01:31:11;;;;;;;23.42;9.00;;;;;;;10.27;76.77;99615.50;4981627;28;20031;-86
2023/03/06 01:33:37;;;;;;;24.33;8.35;;;;;;;10.16;76.88;99608.84;4981608;28;20042;-87
2023/03/06 01:36:06;;;;;;;26.52;8.85;;;;;;;10.11;77.55;99613.00;4965559;28;20043;-89
2023/03/06 01:38:35;;;;;;;22.27;8.20;;;;;;;10.09;77.70;99612.34;4979444;28;20375;-86
2023/03/06 01:41:02;;;;;;;18.85;9.13;;;;;;;10.05;77.77;99616.34;4978560;28;20081;-87
2023/03/06 01:43:33;;;;;;;30.33;9.75;;;;;;;9.99;78.34;99601.19;4962873;28;20066;-87
2023/03/06 01:46:28;;;;;;;28.88;9.15;;;;;;;9.78;79.32;99605.34;4962452;28;20043;-93
2023/03/06 01:49:07;;;;;;;33.67;10.38;;;;;;;9.77;80.15;99598.44;4978239;28;20139;-87
2023/03/06 01:51:55;;;;;;;21.88;9.38;;;;;;;9.74;81.01;99598.78;4947956;28;20050;-88
2023/03/06 01:54:28;;;;;;;33.55;9.85;;;;;;;9.79;80.96;99596.44;4978828;28;20134;-86
2023/03/06 01:57:03;;;;;;;30.35;10.13;;;;;;;9.74;81.30;99598.78;4978392;28;20043;-89
2023/03/06 01:59:29;;;;;;;28.27;12.32;;;;;;;9.75;82.89;99599.59;4962342;28;20038;-89
2023/03/06 02:01:57;;;;;;;33.05;11.50;;;;;;;9.88;82.79;99593.72;4962318;28;20419;-87
2023/03/06 02:04:23;;;;;;;27.92;11.85;;;;;;;10.01;83.20;99604.50;4963930;28;20122;-86
2023/03/06 02:06:49;;;;;;;30.73;13.23;;;;;;;10.11;82.75;99595.28;4987262;28;20089;-88
2023/03/06 02:09:15;;;;;;;27.35;11.45;;;;;;;10.16;83.73;99597.41;4981424;28;20042;-84
2023/03/06 02:11:42;;;;;;;33.65;14.68;;;;;;;10.01;85.96;99583.34;4982587;28;20030;-88
2023/03/06 02:14:16;;;;;;;34.97;17.33;;;;;;;10.10;87.05;99579.59;4948636;28;20486;-86
2023/03/06 02:16:43;;;;;;;46.60;20.92;;;;;;;10.15;91.29;99586.00;4974289;28;20055;-85
2023/03/06 02:19:24;;;;;;;36.30;18.65;;;;;;;10.26;90.72;99579.44;4979077;28;20089;-87
2023/03/06 02:21:50;;;;;;;46.15;19.90;;;;;;;10.16;92.42;99579.72;4961250;28;20134;-89
2023/03/06 02:24:22;;;;;;;41.17;19.55;;;;;;;10.29;92.58;99581.72;4945748;28;20509;-87
2023/03/06 02:26:50;;;;;;;41.08;20.13;;;;;;;10.23;94.29;99582.44;4962820;28;20065;-87
2023/03/06 02:29:26;;;;;;;44.47;20.92;;;;;;;10.06;95.84;99575.66;4946144;28;20482;-86
2023/03/06 02:31:55;;;;;;;52.63;21.60;;;;;;;9.94;98.73;99574.47;4947339;28;20043;-88
2023/03/06 02:34:21;;;;;;;46.58;23.67;;;;;;;9.88;100.00;99582.13;4979563;28;20487;-88
2023/03/06 02:36:50;;;;;;;47.15;23.15;;;;;;;9.82;100.00;99577.53;4962900;28;20039;-87
2023/03/06 02:39:24;;;;;;;48.70;22.50;;;;;;;10.05;100.00;99579.28;4979973;28;20053;-88
2023/03/06 02:41:50;;;;;;;46.63;22.85;;;;;;;10.20;99.18;99581.00;4947390;28;20041;-88
2023/03/06 02:44:17;;;;;;;44.25;22.20;;;;;;;10.03;100.00;99576.03;4947300;28;20031;-89
2023/03/06 02:46:43;;;;;;;50.55;23.38;;;;;;;9.88;100.00;99574.16;4962976;28;20055;-87
2023/03/06 02:49:08;;;;;;;48.78;22.40;;;;;;;9.85;100.00;99574.53;4962263;28;20383;-86
2023/03/06 02:51:34;;;;;;;48.08;22.80;;;;;;;9.95;100.00;99570.78;4962504;28;20041;-88
2023/03/06 02:54:00;;;;;;;54.58;22.83;;;;;;;9.88;100.00;99568.88;4962388;28;20049;-86
2023/03/06 02:56:25;;;;;;;49.45;23.05;;;;;;;9.79;100.00;99563.84;4962306;28;20035;-88
2023/03/06 02:58:51;;;;;;;51.25;22.40;;;;;;;10.04;100.00;99561.78;4961399;28;20045;-90
2023/03/06 03:01:21;;;;;;;45.80;22.35;;;;;;;10.11;100.00;99562.72;4962648;28;20501;-87
2023/03/06 03:03:47;;;;;;;51.03;24.42;;;;;;;10.02;100.00;99564.59;4947248;28;20515;-89
2023/03/06 03:06:13;;;;;;;49.97;24.00;;;;;;;9.81;100.00;99562.66;4949415;28;20113;-87
2023/03/06 03:08:39;;;;;;;53.72;22.45;;;;;;;9.86;100.00;99544.44;4963006;28;20154;-88
2023/03/06 03:11:08;;;;;;;47.55;24.80;;;;;;;9.88;100.00;99551.38;4975412;28;20046;-88
2023/03/06 03:13:38;;;;;;;59.78;24.08;;;;;;;10.01;100.00;99556.88;4974130;28;20050;-87
2023/03/06 03:16:08;;;;;;;51.78;23.95;;;;;;;10.24;100.00;99554.97;4990073;28;20057;-87
2023/03/06 03:18:34;;;;;;;55.80;24.30;;;;;;;10.35;100.00;99557.13;4973301;28;20102;-89
2023/03/06 03:21:00;;;;;;;45.95;22.35;;;;;;;10.27;100.00;99551.97;4972955;28;20062;-87
2023/03/06 03:23:26;;;;;;;53.78;23.40;;;;;;;10.08;100.00;99550.63;4981467;28;20489;-87
2023/03/06 03:26:04;;;;;;;52.97;24.73;;;;;;;9.81;100.00;99548.59;4930486;28;20043;-88
2023/03/06 03:28:30;;;;;;;49.95;24.17;;;;;;;9.72;100.00;99547.88;4961037;28;20042;-89
2023/03/06 03:31:00;;;;;;;55.35;24.88;;;;;;;9.68;100.00;99551.88;4960387;28;20047;-88
2023/03/06 03:33:26;;;;;;;51.05;25.60;;;;;;;9.49;100.00;99544.44;4978123;28;20125;-87
2023/03/06 03:35:59;;;;;;;50.70;25.17;;;;;;;9.45;100.00;99543.16;4977979;28;20550;-87
2023/03/06 03:38:26;;;;;;;51.30;23.95;;;;;;;9.54;100.00;99542.09;4962346;28;20038;-85
2023/03/06 03:40:53;;;;;;;58.10;27.55;;;;;;;9.51;100.00;99539.00;4984599;28;20027;-86
2023/03/06 03:43:22;;;;;;;55.08;26.58;;;;;;;9.62;100.00;99536.72;4959402;28;20098;-85
2023/03/06 03:45:47;;;;;;;53.35;27.05;;;;;;;9.62;100.00;99542.03;4978392;28;20046;-85
2023/03/06 03:48:14;;;;;;;60.72;30.10;;;;;;;9.54;100.00;99542.09;4985567;28;20031;-88
2023/03/06 03:50:39;;;;;;;66.32;31.13;;;;;;;9.47;100.00;99538.53;4968045;28;20049;-87
2023/03/06 03:53:05;;;;;;;58.38;29.95;;;;;;;9.49;100.00;99533.03;4962070;28;20459;-86
2023/03/06 03:55:32;;;;;;;52.90;27.65;;;;;;;9.44;100.00;99538.91;4960920;28;20043;-88
2023/03/06 03:57:58;;;;;;;58.65;30.15;;;;;;;9.51;100.00;99534.50;4960112;28;20049;-87
2023/03/06 04:00:23;;;;;;;61.80;30.05;;;;;;;9.73;100.00;99538.13;4960606;28;20027;-88
2023/03/06 04:03:00;;;;;;;65.80;29.65;;;;;;;9.75;100.00;99536.94;4949801;28;20043;-87
2023/03/06 04:05:33;;;;;;;62.13;29.70;;;;;;;9.65;100.00;99520.50;4949177;28;20042;-87
2023/03/06 04:08:02;;;;;;;65.70;30.10;;;;;;;9.65;100.00;99531.06;4963625;28;20042;-87
2023/03/06 04:10:29;;;;;;;64.60;32.97;;;;;;;9.65;100.00;99530.25;4963474;28;20034;-88
2023/03/06 04:12:56;;;;;;;66.70;33.28;;;;;;;9.48;100.00;99526.94;4981536;28;20110;-89
2023/03/06 04:15:22;;;;;;;71.47;32.22;;;;;;;9.62;100.00;99527.97;4964536;28;20031;-90
2023/03/06 04:17:48;;;;;;;66.40;31.70;;;;;;;9.73;100.00;99532.81;4963896;28;20047;-88
2023/03/06 04:20:24;;;;;;;62.28;29.83;;;;;;;9.71;100.00;99526.91;4948999;28;20060;-85
2023/03/06 04:22:51;;;;;;;54.20;27.55;;;;;;;9.69;100.00;99526.25;4981612;28;20038;-87
2023/03/06 04:25:16;;;;;;;59.08;30.15;;;;;;;9.84;100.00;99527.09;4963620;28;20053;-88
2023/03/06 04:27:42;;;;;;;58.40;28.65;;;;;;;9.69;100.00;99521.78;4963615;28;20058;-86
2023/03/06 04:30:10;;;;;;;74.05;33.20;;;;;;;9.45;100.00;99519.34;4947521;28;20033;-88
2023/03/06 04:32:35;;;;;;;54.95;28.85;;;;;;;9.78;100.00;99512.75;4980935;28;20490;-88
2023/03/06 04:35:01;;;;;;;68.70;30.15;;;;;;;9.77;100.00;99518.25;4964148;28;20065;-87
2023/03/06 04:37:32;;;;;;;60.92;29.50;;;;;;;9.69;100.00;99510.38;4963681;28;20109;-88
2023/03/06 04:39:59;;;;;;;61.65;28.67;;;;;;;9.71;100.00;99509.19;4962982;28;20035;-89
2023/03/06 04:42:24;;;;;;;57.78;29.73;;;;;;;9.69;100.00;99508.56;4980790;28;20090;-86
2023/03/06 04:44:50;;;;;;;60.35;28.80;;;;;;;9.65;100.00;99512.56;4962977;28;20038;-87
2023/03/06 04:47:15;;;;;;;63.53;30.38;;;;;;;9.65;100.00;99520.50;4963938;28;20430;-86
2023/03/06 04:49:41;;;;;;;63.40;28.48;;;;;;;9.40;100.00;99505.03;4966221;28;20035;-85
2023/03/06 04:52:10;;;;;;;59.03;29.85;;;;;;;9.47;100.00;99504.16;4964759;28;20049;-87
2023/03/06 04:54:35;;;;;;;70.05;29.63;;;;;;;9.24;100.00;99506.00;4980945;28;20067;-87
2023/03/06 04:57:01;;;;;;;57.42;27.85;;;;;;;9.25;100.00;99512.91;4945555;28;20027;-87
2023/03/06 04:59:26;;;;;;;53.80;28.83;;;;;;;9.28;100.00;99505.47;4978767;28;20039;-89
2023/03/06 05:01:52;;;;;;;59.60;28.70;;;;;;;9.06;100.00;99494.91;4980342;28;20043;-89
2023/03/06 05:04:18;;;;;;;67.20;33.70;;;;;;;9.08;100.00;99492.94;5001359;28;20090;-86
2023/03/06 05:06:43;;;;;;;56.67;27.92;;;;;;;9.17;100.00;99505.91;5000900;28;20046;-88
2023/03/06 05:09:10;;;;;;;58.40;29.60;;;;;;;9.29;100.00;99493.88;5000478;28;20046;-87
2023/03/06 05:11:35;;;;;;;57.17;30.02;;;;;;;9.22;100.00;99494.78;4979761;28;20022;-88
2023/03/06 05:14:01;;;;;;;66.30;30.10;;;;;;;9.06;100.00;99497.56;4977870;28;20054;-88
2023/03/06 05:16:26;;;;;;;61.97;30.63;;;;;;;8.92;100.00;99488.56;4961083;28;20543;-87
2023/03/06 05:18:52;;;;;;;62.88;30.70;;;;;;;8.99;100.00;99496.63;4944921;28;20458;-85
2023/03/06 05:21:18;;;;;;;65.35;30.83;;;;;;;8.94;100.00;99502.44;4941785;29;20039;-89
2023/03/06 05:23:43;;;;;;;70.13;31.55;;;;;;;8.92;100.00;99504.44;4961855;29;20027;-86
2023/03/06 05:26:11;;;;;;;59.58;31.23;;;;;;;8.82;100.00;99503.84;4981719;28;20134;-89
2023/03/06 05:28:36;;;;;;;71.07;31.50;;;;;;;8.77;100.00;99496.47;4961016;28;20405;-86
2023/03/06 05:31:03;;;;;;;60.55;30.63;;;;;;;9.08;100.00;99500.88;4978333;28;20035;-87
2023/03/06 05:33:34;;;;;;;66.32;30.85;;;;;;;8.92;100.00;99500.97;4960002;28;20127;-87
2023/03/06 05:36:00;;;;;;;65.15;30.10;;;;;;;8.86;100.00;99496.38;4982892;28;20113;-89
2023/03/06 05:38:26;;;;;;;60.25;30.85;;;;;;;9.08;100.00;99487.66;4979921;28;20027;-88
2023/03/06 05:40:52;;;;;;;59.83;32.25;;;;;;;9.26;100.00;99504.00;4961109;28;20046;-88
2023/03/06 05:43:17;;;;;;;65.65;30.55;;;;;;;9.34;100.00;99493.38;4978232;28;20030;-87
2023/03/06 05:45:43;;;;;;;62.42;29.55;;;;;;;9.53;100.00;99500.78;4978290;28;20115;-88
2023/03/06 05:48:11;;;;;;;66.57;31.48;;;;;;;9.37;100.00;99497.47;4978005;28;20034;-85
2023/03/06 05:50:37;;;;;;;74.45;32.85;;;;;;;9.33;100.00;99499.66;4960736;28;20031;-86
2023/03/06 05:53:04;;;;;;;78.90;31.67;;;;;;;9.08;100.00;99498.22;4960087;28;20037;-89
2023/03/06 05:55:29;;;;;;;63.75;31.27;;;;;;;9.14;100.00;99505.44;4977501;28;20038;-85
2023/03/06 05:57:55;;;;;;;67.68;32.80;;;;;;;9.10;100.00;99504.13;4959300;28;20541;-87
2023/03/06 06:00:24;;;;;;;70.13;32.65;;;;;;;8.94;100.00;99504.25;4960061;28;20041;-86
2023/03/06 06:02:50;;;;;;;68.78;31.10;;;;;;;9.12;100.00;99502.13;4959439;28;20049;-84
2023/03/06 06:05:15;;;;;;;63.53;31.75;;;;;;;8.97;100.00;99506.56;4977197;28;20034;-87
2023/03/06 06:07:41;;;;;;;79.00;34.53;;;;;;;8.88;100.00;99500.50;4978641;28;20046;-88
2023/03/06 06:10:07;;;;;;;69.75;33.63;;;;;;;8.76;100.00;99507.19;4979158;28;20526;-89
2023/03/06 06:12:33;;;;;;;69.45;32.30;;;;;;;8.87;100.00;99508.59;4961070;28;20093;-87
2023/03/06 06:15:03;;;;;;;74.97;34.47;;;;;;;8.46;100.00;99500.94;4961500;28;20498;-89
2023/03/06 06:17:30;;;;;;;70.75;33.95;;;;;;;8.34;100.00;99502.31;4946198;28;20462;-88
2023/03/06 06:19:55;;;;;;;64.97;33.85;;;;;;;8.48;100.00;99508.69;4978487;28;20039;-89
2023/03/06 06:22:21;;;;;;;70.90;34.45;;;;;;;8.54;100.00;99508.81;4978924;28;20041;-91
2023/03/06 06:24:47;;;;;;;73.30;33.85;;;;;;;8.72;100.00;99505.88;4961539;28;20415;-88
2023/03/06 06:27:12;;;;;;;62.95;31.55;;;;;;;8.82;100.00;99504.66;4946274;29;20036;-87
2023/03/06 06:29:38;;;;;;;75.65;34.38;;;;;;;8.91;100.00;99505.44;4962699;29;20122;-89
2023/03/06 06:32:04;;;;;;;66.32;31.67;;;;;;;8.82;100.00;99507.31;4960116;29;20055;-90
2023/03/06 06:34:30;;;;;;;70.07;33.90;;;;;;;8.65;100.00;99499.69;4960238;29;20066;-90
2023/03/06 06:36:56;;;;;;;67.43;34.47;;;;;;;8.78;100.00;99505.22;4959515;29;20043;-89
2023/03/06 06:39:23;;;;;;;68.57;32.28;;;;;;;8.78;100.00;99495.44;4956878;29;20131;-88
2023/03/06 06:41:50;;;;;;;67.43;33.30;;;;;;;8.94;100.00;99498.97;4946405;29;20027;-91
2023/03/06 06:44:17;;;;;;;70.38;32.17;;;;;;;9.13;100.00;99498.50;4975321;28;20039;-89
2023/03/06 06:46:44;;;;;;;71.45;33.97;;;;;;;9.27;100.00;99484.50;4967966;29;20035;-86
2023/03/06 06:49:12;;;;;;;69.75;33.50;;;;;;;9.21;100.00;99501.09;4960824;29;20035;-91
2023/03/06 06:51:38;;;;;;;75.72;33.50;;;;;;;9.05;100.00;99495.94;4943196;29;20098;-93
2023/03/06 06:54:04;;;;;;;71.78;33.65;;;;;;;9.18;100.00;99496.16;4959162;29;20047;-92
2023/03/06 06:56:29;;;;;;;63.28;34.47;;;;;;;9.15;100.00;99501.78;4941069;29;20069;-90
2023/03/06 06:58:58;;;;;;;70.32;34.85;;;;;;;9.43;100.00;99502.84;4940459;29;20054;-88
2023/03/06 07:01:24;;;;;;;71.13;35.53;;;;;;;9.56;100.00;99511.00;4957224;29;20047;-90
2023/03/06 07:03:50;;;;;;;67.60;32.95;;;;;;;10.09;100.00;99509.94;4959629;29;20063;-89
2023/03/06 07:06:16;;;;;;;81.68;35.70;;;;;;;9.73;100.00;99509.84;4960566;29;20035;-89
2023/03/06 07:08:42;;;;;;;75.43;34.38;;;;;;;10.16;100.00;99518.00;4958569;29;20039;-87
2023/03/06 07:11:11;;;;;;;79.43;34.65;;;;;;;9.86;100.00;99507.38;4958315;29;20078;-90
2023/03/06 07:13:36;;;;;;;70.47;33.30;;;;;;;9.95;100.00;99523.16;4926295;29;20039;-92
2023/03/06 07:16:02;;;;;;;74.55;33.35;;;;;;;10.34;100.00;99516.59;4941590;29;20046;-90
2023/03/06 07:18:29;;;;;;;71.70;33.33;;;;;;;11.49;100.00;99512.06;4959304;29;20039;-90
2023/03/06 07:20:55;;;;;;;68.65;33.83;;;;;;;11.98;100.00;99517.31;4958784;29;20382;-91
2023/03/06 07:23:21;;;;;;;73.35;33.45;;;;;;;11.89;100.00;99524.63;4940026;29;20475;-89
2023/03/06 07:25:47;;;;;;;67.50;33.15;;;;;;;11.14;100.00;99512.97;4951142;28;20043;-89
2023/03/06 07:28:13;;;;;;;64.70;33.38;;;;;;;11.26;100.00;99516.75;4959673;28;20514;-90
2023/03/06 07:30:42;;;;;;;65.82;34.95;;;;;;;11.03;100.00;99516.97;4961570;28;20035;-87
2023/03/06 07:33:08;;;;;;;64.50;32.55;;;;;;;11.00;100.00;99516.53;4977398;28;20038;-88
2023/03/06 07:35:37;;;;;;;62.13;33.25;;;;;;;11.25;100.00;99515.94;4977865;28;20039;-90
2023/03/06 07:38:03;;;;;;;65.10;33.92;;;;;;;11.39;100.00;99514.22;4977746;28;20093;-90
2023/03/06 07:40:31;;;;;;;72.28;34.45;;;;;;;11.54;100.00;99514.13;4976846;28;20042;-89
2023/03/06 07:42:57;;;;;;;75.85;32.88;;;;;;;11.49;100.00;99516.53;4961815;28;20089;-91
2023/03/06 07:45:33;;;;;;;61.03;30.13;;;;;;;11.26;100.00;99516.75;4977608;28;20047;-91
2023/03/06 07:47:59;;;;;;;64.25;32.72;;;;;;;11.20;100.00;99522.84;4979241;28;20158;-89
2023/03/06 07:50:24;;;;;;;65.22;33.88;;;;;;;11.32;100.00;99521.28;4964045;28;20502;-89
2023/03/06 07:52:51;;;;;;;76.43;34.65;;;;;;;11.19;100.00;99526.47;4980543;28;20038;-92
2023/03/06 07:55:16;;;;;;;70.95;33.53;;;;;;;11.68;100.00;99531.78;4979287;28;20034;-93
2023/03/06 07:57:42;;;;;;;76.78;33.50;;;;;;;11.35;100.00;99526.22;4982317;28;20479;-92
2023/03/06 08:00:14;;;;;;;68.43;32.30;;;;;;;11.39;100.00;99533.63;4976592;28;20037;-90
2023/03/06 08:02:41;;;;;;;;;;;;;;;11.49;100.00;99533.28;4977435;28;20038;-91
2023/03/06 08:05:08;;;;;;;69.28;33.25;;;;;;;11.82;98.34;99539.69;4977220;28;20029;-91
2023/03/06 08:07:34;;;;;;;58.97;31.60;;;;;;;12.04;96.08;99531.63;4976933;28;20039;-90
2023/03/06 08:10:00;;;;;;;61.95;30.80;;;;;;;12.01;93.94;99532.03;4959707;28;20423;-90
2023/03/06 08:12:25;;;;;;;57.78;30.15;;;;;;;11.87;95.24;99539.91;4981346;28;20038;-87
2023/03/06 08:14:51;;;;;;;57.80;29.77;;;;;;;11.88;95.82;99532.78;4981196;28;20041;-89
2023/03/06 08:17:16;;;;;;;60.03;30.80;;;;;;;11.81;94.90;99521.28;4978263;28;20089;-90
2023/03/06 08:19:42;;;;;;;57.65;29.88;;;;;;;12.04;94.45;99531.63;4977181;28;20038;-87
2023/03/06 08:22:07;;;;;;;55.45;30.10;;;;;;;12.13;92.25;99522.50;4977812;28;20031;-89
2023/03/06 08:24:33;;;;;;;75.55;32.55;;;;;;;12.12;92.47;99531.50;4976731;28;20035;-90
2023/03/06 08:26:59;;;;;;;55.90;29.73;;;;;;;12.05;92.09;99533.28;4979321;28;20058;-89
2023/03/06 08:29:25;;;;;;;58.30;28.80;;;;;;;11.93;93.06;99541.78;4960021;28;20043;-91
2023/03/06 08:31:51;;;;;;;56.17;29.38;;;;;;;12.73;88.57;99527.84;4960895;28;20427;-93
2023/03/06 08:34:19;;;;;;;61.05;29.63;;;;;;;12.95;83.83;99532.03;4944975;28;20077;-91
2023/03/06 08:36:44;;;;;;;60.22;29.35;;;;;;;13.23;81.27;99531.88;4980892;28;20510;-91
2023/03/06 08:39:11;;;;;;;56.08;28.55;;;;;;;13.76;78.04;99540.69;4980379;28;20081;-91
2023/03/06 08:41:43;;;;;;;52.63;28.25;;;;;;;14.48;74.17;99553.88;4982628;28;20023;-90
2023/03/06 08:44:09;;;;;;;52.50;27.27;;;;;;;16.08;65.14;99547.25;4980144;28;20039;-90
2023/03/06 08:46:36;;;;;;;53.10;27.58;;;;;;;15.52;66.77;99548.19;4965496;28;20039;-91
2023/03/06 08:49:01;;;;;;;56.70;27.45;;;;;;;16.25;61.44;99541.13;4955667;28;20494;-90
2023/03/06 08:51:27;;;;;;;49.90;27.67;;;;;;;15.76;62.90;99550.03;4976029;28;20037;-89
2023/03/06 08:53:54;;;;;;;55.30;26.83;;;;;;;16.14;61.75;99552.53;4992364;28;20054;-88
2023/03/06 08:56:23;;;;;;;54.90;27.45;;;;;;;15.81;64.13;99546.72;4993176;28;20046;-90
2023/03/06 08:58:49;;;;;;;50.15;27.45;;;;;;;16.10;62.35;99550.53;4982515;28;20031;-90
2023/03/06 09:01:18;;;;;;;58.28;27.80;;;;;;;16.09;64.30;99549.72;4982713;28;20062;-91
2023/03/06 09:03:44;;;;;;;49.63;26.95;;;;;;;15.71;66.53;99555.19;4963841;28;20035;-90
2023/03/06 09:06:10;;;;;;;59.47;27.95;;;;;;;15.53;66.77;99549.81;4984151;28;20106;-88
2023/03/06 09:08:37;;;;;;;50.58;26.50;;;;;;;16.18;62.35;99552.91;4982665;28;20081;-89
2023/03/06 09:11:02;;;;;;;53.35;26.88;;;;;;;15.28;66.65;99546.28;4981789;28;20041;-87
2023/03/06 09:13:31;;;;;;;55.03;28.30;;;;;;;15.42;66.90;99545.16;4965381;28;20550;-89
2023/03/06 09:15:56;;;;;;;46.35;26.05;;;;;;;15.43;66.06;99547.59;4981218;28;20450;-89
2023/03/06 09:18:22;;;;;;;47.85;25.70;;;;;;;16.57;61.48;99549.03;4962280;28;20130;-88
2023/03/06 09:20:47;;;;;;;49.72;27.55;;;;;;;15.61;66.15;99538.06;4979111;28;20093;-87
2023/03/06 09:23:13;;;;;;;54.38;26.73;;;;;;;16.56;60.96;99542.84;4979094;28;20398;-89
2023/03/06 09:25:39;;;;;;;54.40;27.83;;;;;;;16.33;61.45;99540.00;4978974;28;20181;-88
2023/03/06 09:28:04;;;;;;;52.22;26.83;;;;;;;16.87;60.65;99553.34;4960672;28;20038;-88
2023/03/06 09:30:30;;;;;;;68.57;30.20;;;;;;;16.74;59.93;99547.34;4978192;28;20450;-88
2023/03/06 09:32:55;;;;;;;62.85;28.63;;;;;;;16.21;62.97;99553.28;4978857;28;20022;-89
2023/03/06 09:35:21;;;;;;;87.18;36.25;;;;;;;16.37;61.40;99551.91;4979930;28;20057;-89
2023/03/06 09:38:10;;;;;;;58.08;27.98;;;;;;;15.42;65.03;99542.47;4978802;28;20066;-89
2023/03/06 09:41:04;;;;;;;65.70;28.92;;;;;;;14.78;69.05;99540.81;4984261;28;20030;-88
2023/03/06 09:43:35;;;;;;;87.18;37.08;;;;;;;14.39;70.43;99551.66;4952710;28;20031;-88
2023/03/06 09:46:08;;;;;;;102.18;41.70;;;;;;;14.21;72.74;99544.31;4984121;28;20049;-88
2023/03/06 09:49:12;;;;;;;71.30;31.10;;;;;;;13.82;75.07;99542.53;4979559;28;20106;-92
2023/03/06 09:51:44;;;;;;;57.45;24.65;;;;;;;13.83;75.06;99546.84;4955875;28;20126;-90
2023/03/06 09:54:13;;;;;;;47.63;24.10;;;;;;;14.15;74.98;99539.00;4961925;28;20047;-88
2023/03/06 09:56:45;;;;;;;68.35;28.50;;;;;;;14.77;70.57;99530.38;4961089;28;20054;-88
2023/03/06 09:59:22;;;;;;;45.65;24.13;;;;;;;15.16;69.12;99526.66;4943956;28;20513;-88
2023/03/06 10:02:14;;;;;;;44.03;23.73;;;;;;;14.92;68.49;99531.72;4961630;28;20054;-88
2023/03/06 10:04:47;;;;;;;48.60;23.93;;;;;;;15.55;64.36;99528.22;4978545;28;20406;-88
2023/03/06 10:07:36;;;;;;;49.80;23.25;;;;;;;15.99;61.58;99520.84;4978768;28;20038;-88
2023/03/06 10:10:04;;;;;;;46.50;22.90;;;;;;;17.22;58.82;99518.66;4977930;28;20043;-88
2023/03/06 10:12:40;;;;;;;46.28;22.30;;;;;;;17.66;56.94;99522.75;4977713;28;20034;-90
2023/03/06 10:15:25;;;;;;;45.33;21.77;;;;;;;18.51;51.30;99523.84;4960505;28;20378;-88
2023/03/06 10:17:52;;;;;;;48.38;23.65;;;;;;;18.48;50.58;99518.09;4977929;28;20042;-86
2023/03/06 10:20:46;;;;;;;44.72;23.45;;;;;;;17.38;54.51;99517.19;4978401;28;20039;-87
2023/03/06 10:23:32;;;;;;;47.35;22.92;;;;;;;16.44;58.79;99512.50;4980574;28;20066;-88
2023/03/06 10:26:08;;;;;;;55.10;26.48;;;;;;;15.84;63.51;99509.66;4978825;28;20042;-88
2023/03/06 10:28:41;;;;;;;50.05;23.95;;;;;;;15.92;63.20;99492.53;4962072;28;20050;-88
2023/03/06 10:31:26;;;;;;;41.92;22.48;;;;;;;15.93;63.18;99508.38;4993477;28;20098;-87
2023/03/06 10:34:08;;;;;;;43.70;24.65;;;;;;;16.35;62.56;99500.47;4994835;28;20038;-87
2023/03/06 10:36:34;;;;;;;49.55;25.27;;;;;;;16.79;60.85;99510.03;4996833;28;20049;-86
2023/03/06 10:39:08;;;;;;;44.80;24.15;;;;;;;17.46;57.34;99493.56;4982576;28;20018;-90
2023/03/06 10:41:37;;;;;;;40.75;21.08;;;;;;;18.22;52.57;99500.66;4999833;28;20094;-88
2023/03/06 10:44:05;;;;;;;43.13;22.65;;;;;;;17.41;54.50;99497.97;4999706;28;20053;-88
2023/03/06 10:46:41;;;;;;;43.10;19.63;;;;;;;17.65;53.79;99496.97;4996787;28;20069;-87
2023/03/06 10:49:13;;;;;;;34.08;18.05;;;;;;;18.45;50.24;99491.75;4979178;28;20091;-86
2023/03/06 10:51:38;;;;;;;32.20;13.48;;;;;;;18.51;49.71;99493.50;4986749;28;20058;-88
2023/03/06 10:54:13;;;;;;;38.90;17.80;;;;;;;20.04;45.24;99487.75;4977789;28;20035;-87
2023/03/06 10:56:40;;;;;;;35.90;17.05;;;;;;;19.89;43.25;99495.59;4996256;28;20168;-87
2023/03/06 10:59:21;;;;;;;30.80;14.93;;;;;;;19.16;44.05;99495.78;4963090;28;20082;-87
2023/03/06 11:01:49;;;;;;;32.55;14.65;;;;;;;18.04;45.06;99506.97;4995713;28;20050;-87
2023/03/06 11:04:28;;;;;;;27.20;15.30;;;;;;;16.70;48.57;99492.66;4995364;28;20031;-87
2023/03/06 11:07:15;;;;;;;34.88;15.55;;;;;;;16.29;51.46;99491.50;4977402;28;20039;-86
2023/03/06 11:09:56;;;;;;;33.50;15.07;;;;;;;15.73;53.78;99482.88;4997409;28;20042;-87
2023/03/06 11:12:35;;;;;;;27.58;14.50;;;;;;;15.60;54.59;99485.66;4981868;28;20043;-84
2023/03/06 11:15:20;;;;;;;28.85;15.55;;;;;;;15.16;57.32;99467.94;4981435;28;20015;-88
2023/03/06 11:17:58;;;;;;;31.33;14.60;;;;;;;15.30;56.37;99474.81;4998376;28;20039;-86
2023/03/06 11:20:32;;;;;;;29.60;14.30;;;;;;;15.45;56.09;99483.28;4973885;28;20039;-89
2023/03/06 11:23:12;;;;;;;30.85;15.55;;;;;;;15.31;57.09;99471.91;4979036;28;20034;-90
2023/03/06 11:25:49;;;;;;;37.25;15.15;;;;;;;15.35;57.56;99475.78;4961993;28;20109;-88
2023/03/06 11:28:30;;;;;;;30.65;15.45;;;;;;;15.37;57.48;99472.91;4985319;28;20132;-88